Data for 12/07/2012

Time Sea-Level Adjusted Pressure Absolute Pressure Temperature Relative Humidity Dew Point Precipitation   
(mb) (inHg) (mb) (inHg) (C) (F) (%) (C) (F) (mm) (in)
11:41 1016 30 845 24.95 -1.9 28.6 66 -7.5 18.6 0 0
11:42 1016 30 845 24.95 -1.9 28.7 65 -7.6 18.3 0 0
11:43 1016 30 845 24.95 -1.9 28.6 64 -7.7 18.1 .2 0.008
11:44 1016 30 845 24.95 -1.9 28.6 65 -7.6 18.3 0 0
11:45 1016 30 845 24.95 -1.9 28.5 64 -7.8 18 0 0
11:46 1016 30 845 24.95 -2 28.4 65 -7.7 18.2 .2 0.008
11:47 1016 30 845 24.95 -2 28.4 65 -7.8 18 0 0
11:48 1016 30 845 24.95 -2.1 28.3 66 -7.7 18.2 .2 0.008
11:49 1016 30 845 24.95 -2 28.4 66 -7.5 18.4 0 0
11:50 1016 30 845 24.95 -1.9 28.6 65 -7.6 18.3 0 0
11:51 1016 30 845 24.95 -1.7 28.9 66 -7.3 18.9 0 0
11:52 1016 30 845 24.95 -1.4 29.6 64 -7.3 18.9 .2 0.008
11:53 1016 30 845 24.95 -1.1 30.1 62 -7.5 18.4 0 0
11:54 1016 30 845 24.95 -0.9 30.4 60 -7.8 17.9 .2 0.008
11:55 1016 30 845 24.95 -0.9 30.4 58 -8.2 17.3 0 0
11:56 1016 30 845 24.95 -1 30.2 58 -8.2 17.2 .2 0.008
11:57 1016 30 845 24.95 -1.1 30 57 -8.6 16.5 0 0
11:58 1016 30 845 24.95 -1.2 29.8 57 -8.7 16.3 0 0
11:59 1016 30 845 24.95 -1.4 29.5 58 -8.7 16.4 0 0
12:00 1016 30 845 24.95 -1.4 29.5 59 -8.5 16.8 .2 0.008
12:01 1016 30 845 24.95 -1.5 29.2 60 -8.3 17.1 0 0
12:02 1016 30 845 24.95 -1.7 29 61 -8.2 17.3 0 0
12:03 1016 30 845 24.95 -1.7 28.9 61 -8.4 16.9 0 0
12:04 1016 30 845 24.95 -1.6 29.1 58 -8.8 16.1 .2 0.008
12:05 1016 30 845 24.95 -1.5 29.3 58 -8.8 16.2 0 0
12:06 1016 30 845 24.95 -1.4 29.5 58 -8.5 16.6 0 0
12:07 1016 30 845 24.95 -1.4 29.5 57 -8.7 16.3 0 0
12:08 1016 30 845 24.95 -1.3 29.6 58 -8.5 16.7 0 0
12:09 1016 30 845 24.95 -1.1 29.9 59 -8.3 17.1 0 0
12:10 1016 30 845 24.95 -0.9 30.3 57 -8.5 16.8 0 0
12:11 1016 30 845 24.95 -0.7 30.8 56 -8.5 16.7 .4 0.016
12:12 1016 30 845 24.95 -0.5 31.1 55 -8.5 16.7 0 0
12:13 1016 30 845 24.95 -0.3 31.5 53 -8.7 16.4 0 0
12:14 1016 30 845 24.95 -0.3 31.5 52 -9 15.8 0 0
12:15 1016 30 845 24.95 -0.5 31.1 53 -8.9 16 0 0
12:16 1016 30 845 24.95 -0.7 30.7 55 -8.6 16.4 0 0
12:17 1016 30 845 24.95 -1.1 30 56 -8.9 15.9 0 0
12:18 1016 30 845 24.95 -1.3 29.6 58 -8.6 16.6 0 0
12:19 1016 30 845 24.95 -1.7 28.9 60 -8.5 16.6 0 0
12:20 1015 29.97 845 24.95 -2 28.5 60 -8.7 16.4 0 0
12:21 1015 29.97 845 24.95 -2.2 28.1 61 -8.8 16.1 0 0
12:22 1016 30 845 24.95 -2.4 27.7 62 -8.8 16.2 0 0
12:23 1015 29.97 845 24.95 -2.5 27.6 63 -8.6 16.5 0 0
12:24 1016 30 845 24.95 -2.5 27.4 63 -8.7 16.4 0 0
12:25 1016 30 845 24.95 -2.6 27.3 63 -8.7 16.3 0 0
12:26 1016 30 845 24.95 -2.6 27.3 64 -8.5 16.6 0 0
12:27 1015 29.97 845 24.95 -2.6 27.3 63 -8.8 16.2 0 0
12:28 1015 29.97 845 24.95 -2.6 27.4 62 -8.9 16 0 0
12:29 1015 29.97 845 24.95 -2.5 27.4 62 -8.8 16.1 0 0
12:30 1015 29.97 845 24.95 -2.5 27.5 61 -8.9 15.9 0 0
12:31 1015 29.97 845 24.95 -2.5 27.6 62 -8.7 16.3 0 0
12:32 1015 29.97 845 24.95 -2.5 27.6 63 -8.6 16.4 0 0
12:33 1015 29.97 845 24.95 -2.4 27.7 62 -8.7 16.3 0 0
12:34 1015 29.97 845 24.95 -2.4 27.8 59 -9.3 15.3 0 0
12:35 1015 29.97 845 24.95 -2.2 28 62 -8.5 16.6 .2 0.008
12:36 1015 29.97 845 24.95 -2.1 28.3 62 -8.3 17 0 0
12:37 1015 29.97 845 24.95 -1.9 28.6 61 -8.4 17 0 0
12:38 1015 29.97 845 24.95 -1.8 28.8 60 -8.5 16.7 0 0
12:39 1015 29.97 845 24.95 -1.8 28.8 60 -8.6 16.6 0 0
12:40 1015 29.97 845 24.95 -1.7 28.9 61 -8.4 17 0 0
12:41 1015 29.97 845 24.95 -1.7 29 60 -8.4 16.8 0 0
12:42 1015 29.97 845 24.95 -1.6 29.1 58 -8.8 16.2 0 0
12:43 1015 29.97 845 24.95 -1.7 29 59 -8.7 16.3 0 0
12:44 1015 29.97 845 24.95 -1.7 28.9 59 -8.7 16.3 0 0
12:45 1015 29.97 845 24.95 -1.8 28.8 61 -8.4 16.9 0 0
12:46 1015 29.97 845 24.95 -1.8 28.7 61 -8.3 17 0 0
12:47 1015 29.97 845 24.95 -1.8 28.8 60 -8.5 16.6 0 0
12:48 1015 29.97 845 24.95 -1.7 29 58 -8.8 16.1 0 0
12:49 1015 29.97 844 24.92 -1.7 29 57 -9 15.8 0 0
12:50 1015 29.97 845 24.95 -1.7 28.9 57 -9.2 15.4 0 0
12:51 1015 29.97 844 24.92 -1.6 29.1 58 -8.8 16.2 0 0
12:52 1015 29.97 844 24.92 -1.5 29.3 60 -8.4 16.9 0 0
12:53 1015 29.97 844 24.92 -1.6 29.1 59 -8.5 16.7 .2 0.008
12:54 1015 29.97 844 24.92 -1.7 28.9 58 -8.9 15.9 0 0
12:55 1015 29.97 844 24.92 -1.8 28.8 57 -9.3 15.3 0 0
12:56 1015 29.97 844 24.92 -1.9 28.6 59 -8.8 16.2 0 0
12:57 1015 29.97 844 24.92 -1.9 28.5 56 -9.6 14.8 0 0
12:58 1015 29.97 844 24.92 -2 28.5 55 -9.9 14.2 0 0
12:59 1015 29.97 844 24.92 -1.9 28.5 57 -9.3 15.2 0 0
13:00 1015 29.97 844 24.92 -1.8 28.8 56 -9.5 14.9 0 0
13:01 1015 29.97 844 24.92 -1.7 29 54 -9.9 14.3 .2 0.008
13:02 1015 29.97 844 24.92 -1.6 29.2 55 -9.5 14.9 0 0
13:03 1015 29.97 844 24.92 -1.5 29.2 54 -9.8 14.4 0 0
13:04 1015 29.97 844 24.92 -1.6 29.2 54 -9.7 14.5 0 0
13:05 1015 29.97 844 24.92 -1.5 29.2 56 -9.2 15.4 0 0
13:06 1015 29.97 844 24.92 -1.4 29.4 58 -8.7 16.3 0 0
13:07 1015 29.97 844 24.92 -1.4 29.4 56 -9 15.8 0 0
13:08 1015 29.97 844 24.92 -1.5 29.4 57 -9 15.9 0 0
13:09 1015 29.97 844 24.92 -1.6 29.2 55 -9.6 14.8 .2 0.008
13:10 1015 29.97 844 24.92 -1.6 29.1 58 -8.7 16.3 0 0
13:11 1015 29.97 844 24.92 -1.6 29 59 -8.6 16.5 0 0
13:12 1015 29.97 844 24.92 -1.7 28.9 61 -8.2 17.2 0 0
13:13 1015 29.97 844 24.92 -1.9 28.7 60 -8.7 16.3 0 0
13:14 1015 29.97 844 24.92 -1.9 28.7 60 -8.5 16.6 0 0
13:15 1015 29.97 844 24.92 -1.9 28.6 60 -8.6 16.4 0 0
13:16 1015 29.97 844 24.92 -1.9 28.6 59 -8.9 16 0 0
13:17 1015 29.97 844 24.92 -1.8 28.7 57 -9.2 15.5 .2 0.008
13:18 1015 29.97 844 24.92 -1.8 28.8 57 -9.1 15.6 0 0
13:19 1015 29.97 844 24.92 -1.7 28.9 57 -9.1 15.6 0 0
13:20 1015 29.97 844 24.92 -1.6 29 58 -8.9 16 0 0
13:21 1015 29.97 844 24.92 -1.5 29.3 56 -9.1 15.5 0 0
13:22 1015 29.97 844 24.92 -1.6 29.2 58 -8.8 16.1 0 0
13:23 1015 29.97 844 24.92 -1.5 29.3 58 -8.6 16.4 0 0
13:24 1015 29.97 844 24.92 -1.4 29.6 56 -9 15.9 0 0
13:25 1015 29.97 844 24.92 -1.3 29.7 56 -8.9 16 0 0
13:26 1015 29.97 844 24.92 -1.3 29.6 58 -8.6 16.5 0 0
13:27 1015 29.97 844 24.92 -1.3 29.7 58 -8.5 16.7 0 0
13:28 1015 29.97 844 24.92 -1.2 29.9 58 -8.4 16.9 0 0
13:29 1015 29.97 844 24.92 -1.1 30 56 -8.7 16.3 0 0
13:30 1015 29.97 844 24.92 -1.1 30.1 53 -9.5 14.9 .4 0.016
13:31 1015 29.97 844 24.92 -1.1 30 49 -10.4 13.3 0 0
13:32 1015 29.97 844 24.92 -1 30.2 49 -10.3 13.4 0 0
13:33 1015 29.97 844 24.92 -0.9 30.4 49 -10.4 13.2 0 0
13:34 1015 29.97 844 24.92 -0.7 30.7 47 -10.6 12.9 0 0
13:35 1015 29.97 844 24.92 -0.5 31 48 -10.3 13.5 0 0
13:36 1015 29.97 844 24.92 -0.4 31.3 47 -10.3 13.4 0 0
13:37 1015 29.97 844 24.92 -0.2 31.6 47 -10.3 13.5 0 0
13:38 1015 29.97 844 24.92 -0 31.9 46 -10.4 13.2 .2 0.008
13:39 1015 29.97 844 24.92 0 32 44 -10.9 12.3 0 0
13:40 1015 29.97 844 24.92 -0 31.9 44 -10.9 12.4 0 0
13:41 1015 29.97 844 24.92 0 32 45 -10.7 12.8 0 0
13:42 1015 29.97 844 24.92 -0.1 31.8 51 -9.2 15.5 0 0
13:43 1015 29.97 844 24.92 -0.6 30.9 53 -9.1 15.6 0 0
13:44 1015 29.97 844 24.92 -1 30.2 53 -9.5 14.8 0 0
13:45 1015 29.97 844 24.92 -1.4 29.5 51 -10.2 13.6 0 0
13:46 1014 29.94 844 24.92 -1.6 29.2 54 -9.8 14.3 0 0
13:47 1014 29.94 844 24.92 -1.8 28.8 55 -9.6 14.7 0 0
13:48 1014 29.94 844 24.92 -1.9 28.5 55 -9.8 14.4 0 0
13:49 1014 29.94 844 24.92 -2.1 28.3 57 -9.4 15.1 0 0
13:50 1014 29.94 844 24.92 -2.2 28.1 59 -9.1 15.7 0 0
13:51 1014 29.94 844 24.92 -2.3 27.9 61 -8.8 16.1 0 0
13:52 1014 29.94 844 24.92 -2.3 27.8 61 -8.9 16 0 0
13:53 1014 29.94 844 24.92 -2.4 27.7 61 -8.9 16 0 0
13:54 1014 29.94 843 24.89 -2.4 27.7 61 -9 15.7 0 0
13:55 1014 29.94 843 24.89 -2.4 27.6 62 -8.8 16.2 0 0
13:56 1014 29.94 843 24.89 -2.4 27.6 63 -8.5 16.6 0 0
13:57 1014 29.94 843 24.89 -2.4 27.7 64 -8.4 16.9 0 0
13:58 1014 29.94 843 24.89 -2.4 27.7 63 -8.5 16.7 0 0
13:59 1014 29.94 843 24.89 -2.4 27.6 59 -9.3 15.3 0 0
14:00 1014 29.94 843 24.89 -2.4 27.7 57 -9.7 14.6 0 0
14:01 1014 29.94 843 24.89 -2.3 27.9 58 -9.6 14.8 0 0
14:02 1014 29.94 843 24.89 -2.2 28.1 59 -9 15.7 0 0
14:03 1014 29.94 843 24.89 -2.1 28.3 58 -9.3 15.2 0 0
14:04 1014 29.94 843 24.89 -2 28.4 58 -9.1 15.5 0 0
14:05 1014 29.94 843 24.89 -1.9 28.5 56 -9.7 14.6 0 0
14:06 1014 29.94 843 24.89 -1.9 28.6 55 -9.7 14.6 0 0
14:07 1014 29.94 843 24.89 -1.8 28.8 55 -9.6 14.6 0 0
14:08 1014 29.94 843 24.89 -1.6 29.1 55 -9.6 14.8 0 0
14:09 1014 29.94 843 24.89 -1.5 29.3 55 -9.4 15.2 0 0
14:10 1014 29.94 843 24.89 -1.5 29.4 52 -10.1 13.8 0 0
14:11 1014 29.94 843 24.89 -1.4 29.5 54 -9.5 14.9 0 0
14:12 1014 29.94 843 24.89 -1.4 29.5 53 -9.7 14.5 0 0
14:13 1014 29.94 843 24.89 -1.4 29.5 55 -9.4 15.2 0 0
14:14 1014 29.94 843 24.89 -1.3 29.6 54 -9.6 14.8 0 0
14:15 1014 29.94 843 24.89 -1.3 29.7 54 -9.5 14.8 0 0
14:16 1014 29.94 843 24.89 -1.3 29.7 55 -9.3 15.3 0 0
14:17 1014 29.94 843 24.89 -1.2 29.8 55 -9.1 15.6 0 0
14:18 1014 29.94 843 24.89 -1.2 29.9 56 -8.8 16.1 0 0
14:19 1014 29.94 843 24.89 -1.2 29.8 54 -9.4 15.1 0 0
14:20 1014 29.94 843 24.89 -1.2 29.8 55 -9.1 15.7 0 0
14:21 1014 29.94 843 24.89 -1.2 29.9 54 -9.4 15 0 0
14:22 1014 29.94 843 24.89 -1.2 29.9 53 -9.6 14.8 0 0
14:23 1014 29.94 843 24.89 -1.1 30 53 -9.5 15 0 0
14:24 1014 29.94 843 24.89 -1.1 30 53 -9.6 14.7 0 0
14:25 1014 29.94 843 24.89 -1.1 30.1 53 -9.5 14.9 0 0
14:26 1014 29.94 843 24.89 -1.1 30.1 54 -9.3 15.3 0 0
14:27 1014 29.94 843 24.89 -1.1 30.1 52 -9.6 14.7 0 0
14:28 1014 29.94 843 24.89 -1.1 30.1 54 -9.3 15.3 0 0
14:29 1014 29.94 843 24.89 -1.1 30 54 -9.2 15.4 0 0
14:30 1014 29.94 843 24.89 -1.2 29.9 54 -9.3 15.3 0 0
14:31 1014 29.94 843 24.89 -1.1 29.9 53 -9.5 15 0 0
14:32 1014 29.94 843 24.89 -1.1 30.1 54 -9.2 15.4 0 0
14:33 1014 29.94 843 24.89 -1 30.2 55 -9 15.9 0 0
14:34 1014 29.94 843 24.89 -1 30.2 55 -8.8 16.1 0 0
14:35 1014 29.94 843 24.89 -1 30.1 55 -9.1 15.7 0 0
14:36 1014 29.94 843 24.89 -1.1 30.1 53 -9.5 14.9 0 0
14:37 1014 29.94 843 24.89 -1 30.3 55 -8.8 16.2 0 0
14:38 1014 29.94 843 24.89 -1 30.2 55 -8.9 16 0 0
14:39 1014 29.94 843 24.89 -0.9 30.3 54 -9.1 15.6 0 0
14:40 1014 29.94 843 24.89 -0.9 30.4 53 -9.2 15.4 0 0
14:41 1014 29.94 843 24.89 -0.8 30.6 53 -9.3 15.3 0 0
14:42 1014 29.94 843 24.89 -0.7 30.7 52 -9.3 15.3 0 0
14:43 1014 29.94 843 24.89 -0.6 30.9 54 -8.9 16 0 0
14:44 1014 29.94 843 24.89 -0.5 31.1 53 -9 15.8 0 0
14:45 1014 29.94 843 24.89 -0.4 31.3 54 -8.5 16.7 0 0
14:46 1014 29.94 843 24.89 -0.4 31.3 53 -8.8 16.2 0 0
14:47 1014 29.94 843 24.89 -0.3 31.4 52 -9 15.8 0 0
14:48 1014 29.94 843 24.89 -0.3 31.5 52 -9.1 15.7 0 0
14:49 1014 29.94 843 24.89 -0.3 31.5 53 -8.7 16.3 0 0
14:50 1014 29.94 843 24.89 -0.3 31.5 54 -8.5 16.6 0 0
14:51 1014 29.94 843 24.89 -0.3 31.4 53 -8.8 16.2 0 0
14:52 1014 29.94 843 24.89 -0.3 31.4 53 -8.7 16.3 0 0
14:53 1014 29.94 843 24.89 -0.4 31.4 54 -8.5 16.7 0 0
14:54 1014 29.94 843 24.89 -0.4 31.3 56 -8.2 17.2 0 0
14:55 1014 29.94 843 24.89 -0.4 31.3 55 -8.4 16.9 0 0
14:56 1014 29.94 843 24.89 -0.4 31.3 53 -8.7 16.3 0 0
14:57 1013 29.91 843 24.89 -0.4 31.2 55 -8.5 16.7 0 0
14:58 1013 29.91 843 24.89 -0.4 31.2 53 -8.8 16.2 0 0
14:59 1013 29.91 843 24.89 -0.4 31.2 55 -8.3 17 0 0
15:00 1013 29.91 843 24.89 -0.4 31.2 54 -8.6 16.6 0 0
15:01 1013 29.91 843 24.89 -0.5 31.1 56 -8.3 17.1 0 0
15:02 1013 29.91 843 24.89 -0.6 31 56 -8.3 17.1 0 0
15:03 1013 29.91 843 24.89 -0.6 30.9 56 -8.4 16.9 0 0
15:04 1014 29.94 843 24.89 -0.7 30.8 57 -8.1 17.4 0 0
15:05 1013 29.91 843 24.89 -0.7 30.8 56 -8.3 17 0 0
15:06 1014 29.94 843 24.89 -0.7 30.8 57 -8.2 17.2 0 0
15:07 1013 29.91 843 24.89 -0.7 30.8 56 -8.3 17 0 0
15:08 1013 29.91 843 24.89 -0.7 30.8 56 -8.3 17.1 0 0
15:09 1013 29.91 843 24.89 -0.7 30.8 57 -8.2 17.2 0 0
15:10 1013 29.91 843 24.89 -0.7 30.8 55 -8.7 16.4 0 0
15:11 1013 29.91 843 24.89 -0.6 30.9 56 -8.4 17 0 0
15:12 1013 29.91 843 24.89 -0.6 30.9 54 -8.7 16.3 0 0
15:13 1013 29.91 843 24.89 -0.6 31 52 -9.2 15.4 0 0
15:14 1013 29.91 843 24.89 -0.5 31 55 -8.5 16.6 0 0
15:15 1013 29.91 843 24.89 -0.6 30.9 55 -8.6 16.6 0 0
15:16 1013 29.91 843 24.89 -0.7 30.8 55 -8.6 16.5 0 0
15:17 1013 29.91 843 24.89 -0.8 30.6 57 -8.3 17.1 0 0
15:18 1013 29.91 842 24.86 -0.8 30.5 55 -8.9 16.1 0 0
15:19 1013 29.91 842 24.86 -0.8 30.6 57 -8.4 16.9 0 0
15:20 1013 29.91 842 24.86 -0.9 30.5 57 -8.4 16.8 0 0
15:21 1013 29.91 842 24.86 -0.9 30.3 55 -8.9 16 0 0
15:22 1013 29.91 842 24.86 -1 30.2 55 -8.8 16.1 0 0
15:23 1013 29.91 842 24.86 -0.9 30.3 56 -8.7 16.3 0 0
15:24 1013 29.91 842 24.86 -1 30.2 57 -8.5 16.7 0 0
15:25 1013 29.91 842 24.86 -1 30.3 56 -8.7 16.3 0 0
15:26 1013 29.91 842 24.86 -1 30.3 56 -8.8 16.2 0 0
15:27 1013 29.91 842 24.86 -1 30.3 55 -8.8 16.1 0 0
15:28 1013 29.91 842 24.86 -1 30.2 56 -8.7 16.3 0 0
15:29 1013 29.91 842 24.86 -1 30.2 56 -8.7 16.3 0 0
15:30 1013 29.91 842 24.86 -1 30.1 55 -8.9 16.1 0 0
15:31 1013 29.91 842 24.86 -1 30.1 55 -8.9 15.9 0 0
15:32 1013 29.91 842 24.86 -1.1 30.1 56 -8.8 16.2 0 0
15:33 1013 29.91 842 24.86 -1.2 29.9 56 -8.9 16 0 0
15:34 1013 29.91 842 24.86 -1.2 29.8 55 -9.2 15.4 0 0
15:35 1013 29.91 842 24.86 -1.2 29.8 55 -9.1 15.6 0 0
15:36 1013 29.91 842 24.86 -1.2 29.8 54 -9.3 15.3 0 0
15:37 1013 29.91 842 24.86 -1.2 29.9 55 -9.1 15.6 0 0
15:38 1013 29.91 842 24.86 -1.2 29.9 54 -9.4 15.1 0 0
15:39 1013 29.91 842 24.86 -1 30.1 54 -9.3 15.3 0 0
15:40 1013 29.91 842 24.86 -1 30.2 53 -9.4 15.1 0 0
15:41 1013 29.91 842 24.86 -1 30.2 52 -9.7 14.6 0 0
15:42 1013 29.91 842 24.86 -1 30.1 51 -10 14 0 0
15:43 1013 29.91 842 24.86 -1 30.2 52 -9.6 14.8 0 0
15:44 1013 29.91 842 24.86 -1 30.2 53 -9.3 15.2 0 0
15:45 1013 29.91 842 24.86 -1.1 30.1 54 -9.3 15.2 0 0
15:46 1013 29.91 842 24.86 -1.1 30 54 -9.4 15.1 0 0
15:47 1013 29.91 842 24.86 -1.2 29.8 54 -9.3 15.2 0 0
15:48 1013 29.91 842 24.86 -1.3 29.6 55 -9.2 15.5 0 0
15:49 1013 29.91 842 24.86 -1.4 29.4 55 -9.3 15.2 0 0
15:50 1013 29.91 842 24.86 -1.5 29.4 56 -9.3 15.3 0 0
15:51 1013 29.91 842 24.86 -1.6 29.1 56 -9.2 15.5 0 0
15:52 1013 29.91 842 24.86 -1.8 28.8 56 -9.5 14.8 0 0
15:53 1013 29.91 842 24.86 -1.8 28.7 55 -9.8 14.4 0 0
15:54 1013 29.91 842 24.86 -1.8 28.8 53 -10.1 13.8 0 0
15:55 1013 29.91 842 24.86 -1.6 29.1 53 -9.9 14.1 0 0
15:56 1013 29.91 842 24.86 -1.6 29.1 54 -9.8 14.4 0 0
15:57 1013 29.91 842 24.86 -1.7 28.9 54 -9.8 14.3 0 0
15:58 1013 29.91 842 24.86 -1.9 28.7 54 -9.9 14.2 0 0
15:59 1013 29.91 842 24.86 -2 28.5 55 -9.8 14.3 0 0
16:00 1013 29.91 842 24.86 -2.1 28.3 55 -9.9 14.2 0 0
16:01 1013 29.91 842 24.86 -2.2 28.1 56 -9.9 14.3 0 0
16:02 1013 29.91 842 24.86 -2.3 27.9 56 -9.8 14.3 0 0
16:03 1013 29.91 842 24.86 -2.4 27.6 57 -9.9 14.2 0 0
16:04 1013 29.91 842 24.86 -2.5 27.5 57 -10 14 0 0
16:05 1013 29.91 842 24.86 -2.6 27.3 56 -10.1 13.7 0 0
16:06 1013 29.91 842 24.86 -2.7 27.1 56 -10.3 13.5 0 0
16:07 1013 29.91 842 24.86 -2.8 26.9 56 -10.4 13.4 0 0
16:08 1013 29.91 842 24.86 -3 26.7 57 -10.4 13.3 0 0
16:09 1013 29.91 842 24.86 -3.1 26.4 58 -10.3 13.4 0 0
16:10 1013 29.91 842 24.86 -3.3 26.1 58 -10.3 13.4 0 0
16:11 1013 29.91 842 24.86 -3.3 26 58 -10.4 13.3 0 0
16:12 1013 29.91 842 24.86 -3.3 26.1 59 -10.2 13.7 0 0
16:13 1013 29.91 842 24.86 -3.2 26.2 59 -10.1 13.8 0 0
16:14 1013 29.91 842 24.86 -3.2 26.2 59 -10.2 13.6 0 0
16:15 1013 29.91 842 24.86 -3.1 26.4 58 -10.2 13.6 0 0
16:16 1013 29.91 842 24.86 -2.9 26.7 57 -10.3 13.5 0 0
16:17 1013 29.91 842 24.86 -2.7 27.1 57 -10.1 13.7 0 0
16:18 1013 29.91 842 24.86 -2.6 27.3 56 -10.2 13.6 0 0
16:19 1013 29.91 842 24.86 -2.5 27.4 56 -10.1 13.8 0 0
16:20 1013 29.91 842 24.86 -2.6 27.4 57 -9.9 14.2 0 0
16:21 1013 29.91 842 24.86 -2.8 27 58 -9.9 14.2 0 0
16:22 1013 29.91 842 24.86 -2.9 26.8 59 -9.9 14.2 0 0
16:23 1013 29.91 842 24.86 -3 26.6 60 -9.8 14.3 0 0
16:24 1013 29.91 842 24.86 -3.2 26.3 59 -10.1 13.8 0 0
16:25 1013 29.91 842 24.86 -3 26.6 58 -10.2 13.7 0 0
16:26 1013 29.91 842 24.86 -2.9 26.7 57 -10.3 13.5 0 0
16:27 1013 29.91 842 24.86 -2.8 26.9 57 -10.2 13.6 0 0
16:28 1013 29.91 842 24.86 -2.8 27 57 -10.1 13.8 0 0
16:29 1013 29.91 842 24.86 -2.8 26.9 57 -10.1 13.8 0 0
16:30 1013 29.91 842 24.86 -2.9 26.7 57 -10.3 13.5 0 0
16:31 1013 29.91 842 24.86 -2.8 26.9 58 -10.1 13.8 0 0
16:32 1013 29.91 842 24.86 -2.8 27 59 -9.8 14.4 0 0
16:33 1013 29.91 842 24.86 -2.9 26.8 59 -9.8 14.4 0 0
16:34 1012 29.88 842 24.86 -3.1 26.3 58 -10.2 13.6 0 0
16:35 1012 29.88 842 24.86 -3.3 26.1 58 -10.4 13.3 0 0
16:36 1013 29.91 842 24.86 -3.4 26 58 -10.5 13.1 0 0
16:37 1012 29.88 842 24.86 -3.4 25.9 58 -10.5 13.1 0 0
16:38 1012 29.88 842 24.86 -3.5 25.8 59 -10.4 13.3 0 0
16:39 1012 29.88 842 24.86 -3.6 25.5 59 -10.4 13.2 0 0
16:40 1012 29.88 842 24.86 -3.7 25.4 59 -10.5 13.1 0 0
16:41 1012 29.88 842 24.86 -3.7 25.4 59 -10.6 13 0 0
16:42 1012 29.88 842 24.86 -3.8 25.2 59 -10.6 12.9 0 0
16:43 1012 29.88 842 24.86 -4 24.7 61 -10.6 13 0 0
16:44 1012 29.88 842 24.86 -4.4 24.1 62 -10.6 12.9 0 0
16:45 1012 29.88 841 24.83 -4.6 23.6 63 -10.6 13 0 0
16:46 1012 29.88 842 24.86 -4.8 23.3 65 -10.4 13.3 0 0
16:47 1012 29.88 841 24.83 -4.9 23.1 66 -10.4 13.3 0 0
16:48 1012 29.88 841 24.83 -4.8 23.4 64 -10.6 12.9 0 0
16:49 1012 29.88 841 24.83 -4.5 23.9 62 -10.7 12.7 0 0
16:50 1012 29.88 841 24.83 -4.3 24.3 62 -10.6 12.9 0 0
16:51 1012 29.88 841 24.83 -4.1 24.6 61 -10.5 13.1 0 0
16:52 1012 29.88 841 24.83 -3.9 25 61 -10.3 13.5 0 0
16:53 1012 29.88 841 24.83 -3.6 25.5 60 -10.4 13.3 0 0
16:54 1012 29.88 841 24.83 -3.7 25.4 60 -10.3 13.5 0 0
16:55 1012 29.88 841 24.83 -4.2 24.4 63 -10.3 13.5 0 0
16:56 1012 29.88 841 24.83 -4.5 23.9 64 -10.4 13.3 0 0
16:57 1012 29.88 841 24.83 -4.5 23.8 64 -10.4 13.3 0 0
16:58 1012 29.88 841 24.83 -4.5 23.8 63 -10.5 13.1 0 0
16:59 1012 29.88 841 24.83 -4.5 23.8 64 -10.4 13.2 0 0
17:00 1012 29.88 841 24.83 -4.5 24 64 -10.2 13.6 0 0
17:01 1012 29.88 841 24.83 -4.2 24.4 63 -10.2 13.6 0 0
17:02 1012 29.88 841 24.83 -4 24.9 61 -10.4 13.3 0 0
17:03 1012 29.88 841 24.83 -3.7 25.3 61 -10.2 13.7 0 0
17:04 1012 29.88 841 24.83 -3.6 25.6 60 -10.3 13.5 0 0
17:05 1012 29.88 841 24.83 -3.5 25.7 60 -10.1 13.8 0 0
17:06 1012 29.88 841 24.83 -3.5 25.8 61 -10 13.9 0 0
17:07 1012 29.88 841 24.83 -3.4 25.9 59 -10.2 13.7 0 0
17:08 1012 29.88 841 24.83 -3.3 26 60 -10.1 13.9 0 0
17:09 1012 29.88 841 24.83 -3.4 25.9 60 -10.1 13.9 0 0
17:10 1012 29.88 841 24.83 -3.4 25.9 60 -10 14.1 0 0
17:11 1012 29.88 841 24.83 -3.2 26.2 62 -9.5 14.8 0 0
17:12 1012 29.88 841 24.83 -3.1 26.4 62 -9.4 15.1 0 0
17:13 1012 29.88 841 24.83 -3.1 26.5 62 -9.4 15.1 0 0
17:14 1012 29.88 841 24.83 -3.1 26.3 61 -9.5 14.8 0 0
17:15 1012 29.88 841 24.83 -3.4 25.9 63 -9.5 15 0 0
17:16 1012 29.88 841 24.83 -3.6 25.5 64 -9.5 15 0 0
17:17 1012 29.88 841 24.83 -3.8 25.1 64 -9.7 14.5 0 0
17:18 1012 29.88 841 24.83 -4.1 24.5 66 -9.6 14.7 0 0
17:19 1012 29.88 841 24.83 -4.1 24.5 66 -9.6 14.6 0 0
17:20 1012 29.88 841 24.83 -4 24.8 65 -9.7 14.5 0 0
17:21 1012 29.88 841 24.83 -3.9 24.9 63 -9.9 14.1 0 0
17:22 1012 29.88 841 24.83 -4.2 24.4 65 -9.9 14.1 0 0
17:23 1012 29.88 841 24.83 -4.5 23.9 66 -9.8 14.3 0 0
17:24 1012 29.88 841 24.83 -4.5 23.9 67 -9.8 14.4 0 0
17:25 1012 29.88 841 24.83 -4.4 24.1 67 -9.7 14.5 0 0
17:26 1012 29.88 841 24.83 -4.4 24.2 66 -9.9 14.3 0 0
17:27 1012 29.88 841 24.83 -4.4 24 64 -10.3 13.5 0 0
17:28 1012 29.88 841 24.83 -4.9 23.1 66 -10.3 13.5 0 0
17:29 1012 29.88 841 24.83 -5.4 22.4 68 -10.4 13.3 0 0
17:30 1012 29.88 841 24.83 -5.7 21.8 70 -10.3 13.4 0 0
17:31 1012 29.88 841 24.83 -5.7 21.7 70 -10.4 13.3 0 0
17:32 1012 29.88 841 24.83 -5.6 21.9 70 -10.2 13.7 0 0
17:33 1012 29.88 841 24.83 -5.5 22.2 68 -10.5 13 0 0
17:34 1012 29.88 841 24.83 -5.7 21.8 66 -11 12.1 0 0
17:35 1012 29.88 841 24.83 -6.2 20.8 71 -10.7 12.7 0 0
17:36 1012 29.88 841 24.83 -6.5 20.3 73 -10.5 13 0 0
17:37 1012 29.88 841 24.83 -6.5 20.4 72 -10.7 12.8 0 0
17:38 1012 29.88 841 24.83 -6.4 20.5 72 -10.7 12.8 0 0
17:39 1012 29.88 841 24.83 -6.5 20.4 72 -10.7 12.8 0 0
17:40 1012 29.88 841 24.83 -6.5 20.2 73 -10.6 12.9 0 0
17:41 1012 29.88 841 24.83 -6.6 20.2 73 -10.6 12.9 0 0
17:42 1012 29.88 841 24.83 -6.5 20.3 73 -10.6 12.9 0 0
17:43 1012 29.88 841 24.83 -6.5 20.4 73 -10.6 12.9 0 0
17:44 1012 29.88 841 24.83 -6.4 20.4 73 -10.6 12.9 0 0
17:45 1012 29.88 841 24.83 -6.4 20.5 72 -10.6 12.9 0 0
17:46 1012 29.88 841 24.83 -6.4 20.5 72 -10.6 12.9 0 0
17:47 1012 29.88 841 24.83 -6.4 20.6 72 -10.6 13 0 0
17:48 1012 29.88 841 24.83 -6.3 20.6 72 -10.6 13 0 0
17:49 1012 29.88 841 24.83 -6.1 21 71 -10.6 12.9 0 0
17:50 1012 29.88 841 24.83 -5.7 21.8 68 -10.6 12.9 0 0
17:51 1012 29.88 841 24.83 -5.2 22.6 66 -10.6 13 0 0
17:52 1012 29.88 841 24.83 -5 23 65 -10.5 13.1 0 0
17:53 1012 29.88 841 24.83 -5 23 65 -10.5 13 0 0
17:54 1012 29.88 841 24.83 -4.9 23.3 65 -10.5 13.1 0 0
17:55 1012 29.88 841 24.83 -4.9 23.2 65 -10.5 13.1 0 0
17:56 1012 29.88 841 24.83 -5 23 65 -10.6 12.8 0 0
17:57 1012 29.88 841 24.83 -5.5 22.1 67 -10.7 12.7 0 0
17:58 1012 29.88 841 24.83 -5.9 21.3 69 -10.7 12.8 0 0
17:59 1012 29.88 841 24.83 -6.3 20.6 72 -10.6 12.9 0 0
18:00 1012 29.88 841 24.83 -6.5 20.3 73 -10.6 13 0 0
18:01 1012 29.88 841 24.83 -6.5 20.3 73 -10.7 12.8 0 0
18:02 1012 29.88 841 24.83 -6.4 20.5 72 -10.6 13 0 0
18:03 1012 29.88 841 24.83 -6.4 20.5 73 -10.6 13 0 0
18:04 1012 29.88 841 24.83 -6.6 20.1 73 -10.6 12.9 0 0
18:05 1012 29.88 841 24.83 -6.8 19.7 75 -10.6 12.9 0 0
18:06 1012 29.88 841 24.83 -7 19.4 76 -10.6 12.8 0 0
18:07 1012 29.88 841 24.83 -7.2 19.1 76 -10.7 12.7 0 0
18:08 1012 29.88 841 24.83 -7.2 19 76 -10.7 12.8 0 0
18:09 1012 29.88 841 24.83 -7.3 19 77 -10.7 12.8 0 0
18:10 1012 29.88 841 24.83 -7.3 19 77 -10.7 12.8 0 0
18:11 1012 29.88 841 24.83 -7.2 19 77 -10.7 12.8 0 0
18:12 1012 29.88 841 24.83 -7.1 19.2 76 -10.6 12.9 0 0
18:13 1012 29.88 841 24.83 -7.1 19.3 76 -10.6 13 0 0
18:14 1012 29.88 841 24.83 -7.1 19.3 76 -10.6 12.9 0 0
18:15 1011 29.85 841 24.83 -7 19.3 77 -10.5 13.2 0 0
18:16 1012 29.88 841 24.83 -7.1 19.3 77 -10.4 13.2 0 0
18:17 1011 29.85 841 24.83 -7 19.3 77 -10.4 13.3 0 0
18:18 1011 29.85 841 24.83 -7 19.4 77 -10.4 13.4 0 0
18:19 1011 29.85 841 24.83 -7 19.4 77 -10.4 13.2 0 0
18:20 1011 29.85 841 24.83 -6.8 19.7 77 -10.3 13.5 0 0
18:21 1011 29.85 841 24.83 -6.8 19.7 77 -10.2 13.6 0 0
18:22 1011 29.85 841 24.83 -6.7 20 76 -10.3 13.5 0 0
18:23 1011 29.85 841 24.83 -6.4 20.4 75 -10.1 13.8 0 0
18:24 1011 29.85 841 24.83 -6.3 20.6 74 -10.2 13.7 0 0
18:25 1011 29.85 841 24.83 -6.2 20.8 74 -10.2 13.7 0 0
18:26 1011 29.85 841 24.83 -6.2 20.8 74 -10.2 13.7 0 0
18:27 1011 29.85 841 24.83 -6.2 20.8 74 -10.1 13.8 0 0
18:28 1011 29.85 840 24.81 -6.4 20.6 75 -10.1 13.8 0 0
18:29 1011 29.85 840 24.81 -6.5 20.4 76 -10.1 13.9 0 0
18:30 1011 29.85 840 24.81 -6.4 20.6 75 -10 14 0 0
18:31 1011 29.85 840 24.81 -6.2 20.8 75 -10 14 0 0
18:32 1011 29.85 840 24.81 -6.2 20.9 75 -10 14 0 0
18:33 1011 29.85 840 24.81 -6.1 21.1 74 -9.9 14.2 0 0
18:34 1011 29.85 840 24.81 -6 21.3 74 -9.9 14.1 0 0
18:35 1011 29.85 840 24.81 -5.7 21.7 72 -10 14 0 0
18:36 1011 29.85 840 24.81 -5.4 22.3 70 -9.9 14.1 0 0
18:37 1011 29.85 840 24.81 -5.2 22.7 70 -9.8 14.3 0 0
18:38 1011 29.85 840 24.81 -5.1 22.9 70 -9.7 14.5 0 0
18:39 1011 29.85 840 24.81 -5 23 70 -9.7 14.6 0 0
18:40 1011 29.85 840 24.81 -5 23 70 -9.6 14.7 0 0
18:41 1011 29.85 840 24.81 -5 23.1 70 -9.7 14.6 0 0
18:42 1011 29.85 840 24.81 -4.9 23.2 68 -9.9 14.2 0 0
18:43 1011 29.85 840 24.81 -4.5 23.9 66 -9.9 14.2 0 0
18:44 1011 29.85 840 24.81 -4.1 24.6 65 -9.8 14.3 0 0
18:45 1011 29.85 840 24.81 -3.7 25.4 61 -10.1 13.8 0 0
18:46 1011 29.85 840 24.81 -3.2 26.2 60 -10 14.1 0 0
18:47 1011 29.85 840 24.81 -3.1 26.4 61 -9.7 14.6 0 0
18:48 1011 29.85 840 24.81 -3.4 25.9 63 -9.4 15 0 0
18:49 1011 29.85 840 24.81 -3.8 25.2 65 -9.5 14.9 0 0
18:50 1011 29.85 840 24.81 -4 24.7 66 -9.5 14.9 0 0
18:51 1011 29.85 840 24.81 -4.3 24.3 68 -9.4 15.1 0 0
18:52 1011 29.85 840 24.81 -4.6 23.7 69 -9.4 15 0 0
18:53 1011 29.85 840 24.81 -4.8 23.4 69 -9.6 14.8 0 0
18:54 1011 29.85 840 24.81 -4.8 23.3 70 -9.5 14.8 0 0
18:55 1011 29.85 840 24.81 -5 23.1 70 -9.6 14.7 0 0
18:56 1011 29.85 840 24.81 -5.1 22.9 70 -9.7 14.6 0 0
18:57 1011 29.85 840 24.81 -5.1 22.9 70 -9.8 14.3 0 0
18:58 1011 29.85 840 24.81 -5 23 69 -9.8 14.4 0 0
18:59 1011 29.85 840 24.81 -4.9 23.1 69 -9.7 14.6 0 0
19:00 1011 29.85 840 24.81 -4.9 23.2 69 -9.7 14.5 0 0
19:01 1011 29.85 840 24.81 -4.9 23.2 70 -9.6 14.7 0 0
19:02 1011 29.85 840 24.81 -4.9 23.2 69 -9.7 14.6 0 0
19:03 1011 29.85 840 24.81 -4.9 23.2 70 -9.6 14.7 0 0
19:04 1011 29.85 840 24.81 -4.9 23.2 70 -9.6 14.7 0 0
19:05 1011 29.85 840 24.81 -4.9 23.2 70 -9.6 14.8 0 0
19:06 1011 29.85 840 24.81 -4.9 23.1 70 -9.5 14.9 0 0
19:07 1011 29.85 840 24.81 -5 23.1 70 -9.6 14.7 0 0
19:08 1011 29.85 840 24.81 -5 22.9 71 -9.6 14.7 0 0
19:09 1011 29.85 840 24.81 -5 23 71 -9.5 14.8 0 0
19:10 1011 29.85 840 24.81 -5.1 22.9 71 -9.5 14.8 0 0
19:11 1011 29.85 840 24.81 -5.1 22.8 72 -9.4 15 0 0
19:12 1011 29.85 840 24.81 -5.1 22.8 72 -9.5 15 0 0
19:13 1011 29.85 840 24.81 -5.1 22.8 71 -9.5 14.9 0 0
19:14 1011 29.85 840 24.81 -4.6 23.7 67 -9.8 14.3 0 0
19:15 1011 29.85 840 24.81 -4 24.7 66 -9.5 14.9 0 0
19:16 1010 29.83 840 24.81 -3.7 25.4 64 -9.4 15 0 0
19:17 1010 29.83 840 24.81 -3.4 25.9 63 -9.4 15.1 0 0
19:18 1011 29.85 840 24.81 -3.2 26.2 63 -9.3 15.3 0 0
19:19 1011 29.85 840 24.81 -3.2 26.3 64 -9.1 15.6 0 0
19:20 1010 29.83 840 24.81 -3.3 26.2 63 -9.2 15.4 0 0
19:21 1010 29.83 840 24.81 -3.3 26 65 -9 15.8 0 0
19:22 1010 29.83 840 24.81 -3.4 25.9 64 -9.2 15.5 0 0
19:23 1010 29.83 840 24.81 -3.4 25.9 64 -9.3 15.3 0 0
19:24 1010 29.83 840 24.81 -3.5 25.7 64 -9.3 15.3 0 0
19:25 1010 29.83 840 24.81 -3.5 25.7 65 -9.1 15.7 0 0
19:26 1010 29.83 839 24.78 -3.4 25.8 66 -8.9 15.9 0 0
19:27 1010 29.83 839 24.78 -3.3 26 66 -8.9 16 0 0
19:28 1010 29.83 839 24.78 -3.3 26 66 -8.9 16 0 0
19:29 1010 29.83 839 24.78 -3.3 26 65 -8.9 15.9 0 0
19:30 1010 29.83 839 24.78 -3.3 26.1 65 -8.9 16 0 0
19:31 1010 29.83 839 24.78 -3.3 26.1 66 -8.8 16.1 0 0
19:32 1010 29.83 839 24.78 -3.3 26.1 66 -8.7 16.3 0 0
19:33 1010 29.83 839 24.78 -3.3 26 67 -8.7 16.4 0 0
19:34 1010 29.83 839 24.78 -3.4 25.9 66 -8.9 15.9 0 0
19:35 1010 29.83 839 24.78 -3.4 25.9 65 -9 15.8 0 0
19:36 1010 29.83 839 24.78 -3.5 25.8 66 -9 15.8 0 0
19:37 1010 29.83 839 24.78 -3.5 25.7 66 -8.9 15.9 0 0
19:38 1010 29.83 839 24.78 -3.5 25.7 67 -8.8 16.1 0 0
19:39 1010 29.83 839 24.78 -3.5 25.8 66 -8.8 16.1 0 0
19:40 1010 29.83 839 24.78 -3.5 25.8 66 -8.8 16.1 0 0
19:41 1010 29.83 839 24.78 -3.4 25.9 67 -8.8 16.2 0 0
19:42 1010 29.83 839 24.78 -3.4 25.8 67 -8.7 16.3 0 0
19:43 1010 29.83 839 24.78 -3.5 25.8 67 -8.6 16.5 0 0
19:44 1010 29.83 839 24.78 -3.5 25.7 68 -8.5 16.6 0 0
19:45 1010 29.83 839 24.78 -3.5 25.7 68 -8.5 16.7 0 0
19:46 1010 29.83 839 24.78 -3.5 25.7 69 -8.4 16.8 0 0
19:47 1010 29.83 839 24.78 -3.4 25.8 70 -8.2 17.2 0 0
19:48 1010 29.83 839 24.78 -3.4 26 70 -8 17.5 0 0
19:49 1010 29.83 839 24.78 -3.2 26.2 70 -7.9 17.8 0 0
19:50 1010 29.83 839 24.78 -3.1 26.5 69 -8 17.7 0 0
19:51 1010 29.83 839 24.78 -2.8 26.9 69 -7.8 18 0 0
19:52 1010 29.83 839 24.78 -2.6 27.3 69 -7.7 18.2 0 0
19:53 1010 29.83 839 24.78 -2.6 27.3 67 -7.8 18 0 0
19:54 1010 29.83 839 24.78 -2.5 27.5 68 -7.6 18.4 0 0
19:55 1010 29.83 839 24.78 -2.5 27.5 68 -7.5 18.4 0 0
19:56 1010 29.83 839 24.78 -2.5 27.5 68 -7.5 18.4 0 0
19:57 1010 29.83 839 24.78 -2.5 27.5 68 -7.6 18.3 0 0
19:58 1010 29.83 839 24.78 -2.5 27.5 68 -7.6 18.3 0 0
19:59 1010 29.83 839 24.78 -2.5 27.6 69 -7.5 18.6 0 0
20:00 1010 29.83 839 24.78 -2.5 27.5 67 -7.9 17.8 0 0
20:01 1010 29.83 839 24.78 -2.4 27.7 66 -7.8 18 0 0
20:02 1010 29.83 839 24.78 -2.3 27.9 65 -7.9 17.8 0 0
20:03 1010 29.83 839 24.78 -2.2 28 65 -7.9 17.7 0 0
20:04 1010 29.83 839 24.78 -2.2 28 65 -8 17.6 0 0
20:05 1010 29.83 839 24.78 -2.2 28.1 65 -7.9 17.8 0 0
20:06 1010 29.83 839 24.78 -2.2 28.1 66 -7.7 18.1 0 0
20:07 1010 29.83 839 24.78 -2.2 28.1 66 -7.7 18.2 0 0
20:08 1010 29.83 839 24.78 -2.3 27.9 66 -7.7 18.2 0 0
20:09 1010 29.83 839 24.78 -2.3 27.9 65 -7.9 17.7 0 0
20:10 1010 29.83 839 24.78 -2.2 28.1 64 -8 17.6 0 0
20:11 1010 29.83 839 24.78 -2.1 28.3 65 -7.8 17.9 0 0
20:12 1010 29.83 839 24.78 -2.1 28.3 65 -7.8 18 0 0
20:13 1010 29.83 839 24.78 -2 28.3 66 -7.6 18.3 0 0
20:14 1010 29.83 839 24.78 -2.1 28.2 66 -7.5 18.4 0 0
20:15 1010 29.83 839 24.78 -2.1 28.2 66 -7.6 18.3 0 0
20:16 1010 29.83 839 24.78 -2.1 28.2 66 -7.6 18.3 0 0
20:17 1010 29.83 839 24.78 -2.1 28.3 66 -7.5 18.4 0 0
20:18 1010 29.83 839 24.78 -2.1 28.3 67 -7.5 18.6 0 0
20:19 1010 29.83 839 24.78 -2.1 28.2 67 -7.5 18.5 0 0
20:20 1010 29.83 839 24.78 -2.1 28.1 66 -7.6 18.3 0 0
20:21 1010 29.83 839 24.78 -2.1 28.2 66 -7.7 18.2 0 0
20:22 1010 29.83 839 24.78 -2.1 28.2 65 -7.8 18 0 0
20:23 1010 29.83 839 24.78 -2.1 28.3 65 -7.7 18.2 0 0
20:24 1010 29.83 839 24.78 -2.1 28.3 66 -7.6 18.3 0 0
20:25 1010 29.83 839 24.78 -2.1 28.2 66 -7.6 18.3 0 0
20:26 1010 29.83 839 24.78 -2.1 28.2 65 -7.9 17.8 0 0